Portada
METAR-TAF:

METAR-TAF

Aeroports :

Mae Hong Son, Tailàndia

latitud: 19-18N, longitud: 097-50E, altitud: 267 m

Observació

L'informe es va fer fa 1 hora i 0 minuts, a les 07:00 UTC
Temperatura 33°C
Humitat 49%
Pressió 1008 hPa
Visibilitat 10 km o més
Escasses núvols a una alçada de 2000 ft, Cumulus congestus.

METAR: VTCH 230700Z /////KT 9999 FEW020TCU 33/21 Q1008

Hora: 15:00 (08:00 UTC)

Pronòstic

L'informe es va fer fa 3 hores i 0 minuts, a les 05:00 UTC
Pronòstic vàlid del 23 a les 06 UTC al 24 a les 06 UTC
Vent 5 kt del Oest/Sud-Oest
Visibilitat 10 km o més
Núvols disperses a una alçada de 2500 ft
Evolucionant progressivament
l' 23 a les 21 UTC al 23 a les 23 UTC
Visibilitat: 0800 m
boira
Evolucionant progressivament
l' 24 a les 01 UTC al 24 a les 03 UTC
Visibilitat 10 km o més

TAF: VTCH 230500Z 2306/2406 24005KT 9999 SCT025 BECMG 2321/2323 0800 FG BECMG 2401/2403 9999 NSW

Observacions i pronòstics meteorològics de més de 4000 aeroports (METAR i TAF).

Les estacions disponibles són els punts grocs i vermells al mapa.

Posi el ratolí al punt desitjat per veure el nom de l'estació.

Feu clic per veure les observacions i els pronòstics meteorològics.

Per canviar el mapa: feu clic els botons verds amb una creu de color negre per apropar; al botó verd amb un guió per allunyar la imatge; o en les fletxes verdes per a mapes adjacents.


METAR-TAF: